Time;durP1;ratioP1;P1;durP2;ratioP2;P2;SDS_P1;SDS_P2;PMS_P1;PMS_P2;Temp;Humidity;BMP_temperature;BMP_pressure;BME280_temperature;BME280_humidity;BME280_pressure;Samples;Min_cycle;Max_cycle;Signal;HPM_P1;HPM_P2
2024/04/13 00:02:18;;;;;;;11.13;10.03;;;17.90;99.90;;;;;;5417978;26;20488;-73
2024/04/13 00:04:46;;;;;;;7.90;6.30;;;17.90;99.90;;;;;;5420063;26;20604;-73
2024/04/13 00:07:15;;;;;;;7.37;6.67;;;17.90;99.90;;;;;;5420871;26;20469;-73
2024/04/13 00:09:41;;;;;;;7.97;7.27;;;17.90;99.90;;;;;;5443094;25;20908;-73
2024/04/13 00:12:10;;;;;;;9.60;8.40;;;17.80;99.90;;;;;;5456420;26;20487;-73
2024/04/13 00:14:35;;;;;;;9.97;9.07;;;17.90;99.90;;;;;;5456813;26;20479;-73
2024/04/13 00:17:07;;;;;;;12.03;10.67;;;17.80;99.90;;;;;;5456190;26;20594;-73
2024/04/13 00:19:35;;;;;;;7.17;6.47;;;17.80;99.90;;;;;;5456642;26;20482;-72
2024/04/13 00:22:08;;;;;;;7.83;7.13;;;17.80;99.90;;;;;;5456382;26;20475;-73
2024/04/13 00:24:33;;;;;;;61.33;38.37;;;17.80;99.90;;;;;;5456739;26;20470;-72
2024/04/13 00:27:03;;;;;;;28.13;18.33;;;17.80;99.90;;;;;;5455786;26;20534;-72
2024/04/13 00:29:31;;;;;;;10.10;9.10;;;17.80;99.90;;;;;;5456231;26;20519;-72
2024/04/13 00:32:05;;;;;;;8.50;7.10;;;17.80;99.90;;;;;;5490015;25;20536;-72
2024/04/13 00:34:30;;;;;;;8.10;7.30;;;17.80;99.90;;;;;;5493045;25;20820;-73
2024/04/13 00:36:59;;;;;;;8.57;7.73;;;17.80;99.90;;;;;;5489114;25;20488;-73
2024/04/13 00:39:28;;;;;;;7.40;6.63;;;17.70;99.90;;;;;;5465690;26;20611;-74
2024/04/13 00:41:57;;;;;;;12.63;7.60;;;17.70;99.90;;;;;;5456290;26;20523;-73
2024/04/13 00:44:23;;;;;;;15.27;12.60;;;17.80;99.90;;;;;;5456515;26;20519;-73
2024/04/13 00:47:04;;;;;;;14.33;12.03;;;17.70;99.90;;;;;;5428315;26;20479;-72
2024/04/13 00:49:31;;;;;;;10.07;9.07;;;17.70;99.90;;;;;;5417149;26;20484;-72
2024/04/13 00:52:01;;;;;;;13.13;10.53;;;17.70;99.90;;;;;;5416573;26;20583;-72
2024/04/13 00:54:31;;;;;;;11.40;10.10;;;17.70;99.90;;;;;;5417105;26;20520;-72
2024/04/13 00:57:00;;;;;;;6.70;6.10;;;17.70;99.90;;;;;;5416645;26;20972;-72
2024/04/13 00:59:26;;;;;;;6.63;5.90;;;17.70;99.90;;;;;;5416825;26;20555;-72
2024/04/13 01:01:57;;;;;;;16.53;13.57;;;17.60;99.90;;;;;;5417503;26;20595;-72
2024/04/13 01:04:24;;;;;;;17.00;15.17;;;17.60;99.90;;;;;;5420156;26;20473;-73
2024/04/13 01:06:53;;;;;;;13.07;11.33;;;17.60;99.90;;;;;;5419698;26;20492;-72
2024/04/13 01:09:20;;;;;;;12.87;9.93;;;17.70;99.90;;;;;;5444882;26;20474;-73
2024/04/13 01:11:51;;;;;;;8.90;8.07;;;17.70;99.90;;;;;;5477670;25;20943;-73
2024/04/13 01:14:18;;;;;;;17.77;13.27;;;17.70;99.90;;;;;;5490983;25;20589;-73
2024/04/13 01:16:46;;;;;;;13.00;11.63;;;17.70;99.90;;;;;;5491770;25;20832;-73
2024/04/13 01:19:15;;;;;;;12.40;11.20;;;17.70;99.90;;;;;;5492095;25;20518;-73
2024/04/13 01:21:45;;;;;;;16.40;14.70;;;17.70;99.90;;;;;;5492613;25;20477;-73
2024/04/13 01:24:13;;;;;;;14.97;13.37;;;17.70;99.90;;;;;;5491783;25;20560;-72
2024/04/13 01:26:42;;;;;;;10.93;9.80;;;17.70;99.90;;;;;;5492385;25;20597;-73
2024/04/13 01:29:08;;;;;;;11.13;9.77;;;17.70;99.90;;;;;;5491796;25;20857;-72
2024/04/13 01:31:38;;;;;;;9.27;8.37;;;17.80;99.90;;;;;;5492464;25;20888;-73
2024/04/13 01:34:05;;;;;;;8.50;7.70;;;17.70;99.90;;;;;;5491877;25;20485;-72
2024/04/13 01:36:40;;;;;;;10.93;9.77;;;17.70;99.90;;;;;;5491936;25;20533;-72
2024/04/13 01:39:08;;;;;;;7.90;7.20;;;17.70;99.90;;;;;;5470140;25;20634;-73
2024/04/13 01:41:42;;;;;;;7.90;7.10;;;17.70;99.90;;;;;;5456107;26;20582;-73
2024/04/13 01:44:08;;;;;;;11.63;9.80;;;17.70;99.90;;;;;;5454991;26;20614;-72
2024/04/13 01:46:39;;;;;;;9.80;8.70;;;17.80;99.90;;;;;;5455525;26;20479;-73
2024/04/13 01:49:06;;;;;;;18.33;12.50;;;17.70;99.90;;;;;;5455311;26;20613;-73
2024/04/13 01:51:34;;;;;;;10.30;9.30;;;17.70;99.90;;;;;;5455553;26;20487;-72
2024/04/13 01:54:00;;;;;;;7.10;6.50;;;17.70;99.90;;;;;;5455014;26;20623;-73
2024/04/13 01:56:30;;;;;;;14.00;12.57;;;17.70;99.90;;;;;;5455562;26;20777;-73
2024/04/13 01:58:58;;;;;;;10.90;9.80;;;17.70;99.90;;;;;;5455377;26;20510;-73
2024/04/13 02:01:27;;;;;;;8.23;7.43;;;17.70;99.90;;;;;;5431633;26;20544;-73
2024/04/13 02:03:53;;;;;;;7.07;6.47;;;17.70;99.90;;;;;;5419328;26;20472;-73
2024/04/13 02:06:22;;;;;;;7.40;6.70;;;17.70;99.90;;;;;;5418772;26;20529;-73
2024/04/13 02:08:47;;;;;;;7.07;6.40;;;17.70;99.90;;;;;;5428068;26;20538;-73
2024/04/13 02:11:16;;;;;;;7.80;7.10;;;17.70;99.90;;;;;;5454814;26;20581;-73
2024/04/13 02:13:42;;;;;;;6.60;6.03;;;17.70;99.90;;;;;;5455187;26;20475;-73
2024/04/13 02:16:14;;;;;;;6.47;5.87;;;17.70;99.90;;;;;;5454652;26;20478;-73
2024/04/13 02:18:40;;;;;;;6.07;5.57;;;17.60;99.90;;;;;;5455531;26;21095;-72
2024/04/13 02:21:08;;;;;;;6.50;5.60;;;17.60;99.90;;;;;;5454909;26;20483;-73
2024/04/13 02:23:38;;;;;;;6.10;5.70;;;17.70;99.90;;;;;;5455022;26;20483;-73
2024/04/13 02:26:10;;;;;;;6.10;5.50;;;17.70;99.90;;;;;;5454029;26;20558;-73
2024/04/13 02:28:36;;;;;;;9.63;8.73;;;17.70;99.90;;;;;;5454972;26;20542;-73
2024/04/13 02:31:07;;;;;;;20.80;15.20;;;17.60;99.90;;;;;;5454548;26;20576;-73
2024/04/13 02:33:36;;;;;;;14.90;12.73;;;17.60;99.90;;;;;;5454940;26;20832;-73
2024/04/13 02:36:07;;;;;;;12.57;10.70;;;17.60;99.90;;;;;;5454981;26;20483;-73
2024/04/13 02:38:33;;;;;;;15.60;13.97;;;17.60;99.90;;;;;;5454724;26;20479;-73
2024/04/13 02:41:03;;;;;;;14.13;12.67;;;17.60;99.90;;;;;;5454649;26;20570;-72
2024/04/13 02:43:31;;;;;;;14.03;12.50;;;17.50;99.90;;;;;;5454825;26;20476;-73
2024/04/13 02:46:04;;;;;;;16.07;13.37;;;17.50;99.90;;;;;;5454964;26;20479;-73
2024/04/13 02:48:30;;;;;;;9.97;8.97;;;17.50;99.90;;;;;;5490650;25;20474;-72
2024/04/13 02:51:01;;;;;;;8.50;7.60;;;17.50;99.90;;;;;;5491463;25;21015;-73
2024/04/13 02:53:27;;;;;;;34.60;27.17;;;17.50;99.90;;;;;;5490669;25;20584;-73
2024/04/13 02:55:55;;;;;;;40.03;30.00;;;17.40;99.90;;;;;;5491238;25;20842;-73
2024/04/13 02:58:21;;;;;;;51.07;39.60;;;17.40;99.90;;;;;;5490520;25;20537;-73
2024/04/13 03:00:54;;;;;;;28.97;25.63;;;17.40;99.90;;;;;;5490895;25;20587;-73
2024/04/13 03:03:20;;;;;;;13.57;11.80;;;17.40;99.90;;;;;;5490686;25;20562;-73
2024/04/13 03:05:51;;;;;;;23.80;19.97;;;17.40;99.90;;;;;;5491000;25;20576;-73
2024/04/13 03:08:19;;;;;;;38.63;30.07;;;17.30;99.90;;;;;;5490256;25;20854;-73
2024/04/13 03:10:56;;;;;;;21.70;17.13;;;17.30;99.90;;;;;;5490975;25;20477;-73
2024/04/13 03:13:22;;;;;;;17.80;16.10;;;17.30;99.90;;;;;;5489510;25;20632;-73
2024/04/13 03:16:00;;;;;;;19.80;15.27;;;17.30;99.90;;;;;;5490914;26;20847;-72
2024/04/13 03:18:26;;;;;;;12.13;10.60;;;17.20;99.90;;;;;;5458168;26;20463;-72
2024/04/13 03:20:55;;;;;;;9.63;8.73;;;17.20;99.90;;;;;;5453849;26;20772;-73
2024/04/13 03:23:24;;;;;;;8.93;8.07;;;17.20;99.90;;;;;;5454265;26;20589;-73
2024/04/13 03:25:52;;;;;;;10.63;9.30;;;17.20;99.90;;;;;;5453630;26;20482;-72
2024/04/13 03:28:22;;;;;;;13.23;11.90;;;17.20;99.90;;;;;;5453255;26;20523;-72
2024/04/13 03:30:52;;;;;;;9.90;8.93;;;17.10;99.90;;;;;;5454306;26;20531;-73
2024/04/13 03:33:17;;;;;;;9.30;7.93;;;17.10;99.90;;;;;;5453619;26;20587;-73
2024/04/13 03:35:46;;;;;;;10.83;8.70;;;17.10;99.90;;;;;;5454217;26;20841;-72
2024/04/13 03:38:16;;;;;;;9.97;9.00;;;17.10;99.90;;;;;;5452167;26;20776;-72
2024/04/13 03:40:48;;;;;;;7.80;7.00;;;17.10;99.90;;;;;;5454029;26;20614;-72
2024/04/13 03:43:17;;;;;;;10.70;9.57;;;17.10;99.90;;;;;;5453317;26;20511;-72
2024/04/13 03:45:52;;;;;;;10.70;9.80;;;17.00;99.90;;;;;;5454029;26;20479;-73
2024/04/13 03:48:21;;;;;;;13.80;12.17;;;17.00;99.90;;;;;;5453184;26;20466;-73
2024/04/13 03:50:47;;;;;;;11.47;10.30;;;17.00;99.90;;;;;;5453634;26;20463;-73
2024/04/13 03:53:16;;;;;;;15.23;13.73;;;17.00;99.90;;;;;;5443526;26;20527;-74
2024/04/13 03:55:52;;;;;;;9.13;8.23;;;16.90;99.90;;;;;;5480524;26;20531;-73
2024/04/13 03:58:23;;;;;;;9.90;8.90;;;16.90;99.90;;;;;;5441945;26;20478;-75
2024/04/13 04:00:56;;;;;;;9.13;8.40;;;17.00;99.90;;;;;;5452702;26;20475;-73
2024/04/13 04:03:25;;;;;;;10.37;9.07;;;16.90;99.90;;;;;;5452593;26;20561;-73
2024/04/13 04:05:51;;;;;;;9.80;8.13;;;16.90;99.90;;;;;;5453676;26;20471;-73
2024/04/13 04:08:21;;;;;;;11.57;9.90;;;16.90;99.90;;;;;;5453006;26;20588;-73
2024/04/13 04:10:49;;;;;;;7.73;7.10;;;16.90;99.90;;;;;;5453321;26;20535;-72
2024/04/13 04:13:23;;;;;;;9.37;8.40;;;16.90;99.90;;;;;;5452927;26;20793;-72
2024/04/13 04:15:49;;;;;;;17.20;15.20;;;17.00;99.90;;;;;;5453335;26;20471;-72
2024/04/13 04:18:18;;;;;;;33.40;26.93;;;16.90;99.90;;;;;;5452930;26;20519;-73
2024/04/13 04:20:46;;;;;;;16.60;14.93;;;16.90;99.90;;;;;;5453372;26;20587;-72
2024/04/13 04:23:14;;;;;;;10.97;9.97;;;16.90;99.90;;;;;;5452748;26;20482;-71
2024/04/13 04:25:40;;;;;;;13.90;12.40;;;16.90;99.90;;;;;;5453248;26;20550;-71
2024/04/13 04:28:12;;;;;;;13.53;12.13;;;16.90;99.90;;;;;;5452947;26;20539;-71
2024/04/13 04:30:38;;;;;;;10.10;9.10;;;16.90;99.90;;;;;;5452798;26;20517;-72
2024/04/13 04:33:07;;;;;;;13.97;12.53;;;16.90;99.90;;;;;;5452763;26;20853;-72
2024/04/13 04:35:33;;;;;;;11.43;10.23;;;16.90;99.90;;;;;;5453146;26;20617;-72
2024/04/13 04:38:01;;;;;;;9.87;8.87;;;16.90;99.90;;;;;;5452866;26;20475;-72
2024/04/13 04:40:28;;;;;;;9.50;8.60;;;16.90;99.90;;;;;;5452588;26;20482;-72
2024/04/13 04:42:57;;;;;;;11.57;9.60;;;16.90;99.90;;;;;;5453009;26;20483;-73
2024/04/13 04:45:25;;;;;;;12.70;11.00;;;16.90;99.90;;;;;;5451999;26;20917;-73
2024/04/13 04:47:54;;;;;;;8.87;8.07;;;17.00;99.90;;;;;;5452734;26;20499;-72
2024/04/13 04:50:22;;;;;;;7.53;6.60;;;17.00;99.90;;;;;;5455080;26;20471;-73
2024/04/13 04:52:51;;;;;;;10.30;9.30;;;17.00;99.90;;;;;;5456529;26;20549;-73
2024/04/13 04:55:17;;;;;;;13.23;10.97;;;17.00;99.90;;;;;;5456037;26;20608;-73
2024/04/13 04:57:47;;;;;;;15.23;7.70;;;17.00;99.90;;;;;;5456420;26;20846;-72
2024/04/13 05:00:14;;;;;;;9.97;8.10;;;17.00;99.90;;;;;;5455826;26;20619;-73
2024/04/13 05:02:45;;;;;;;8.53;7.83;;;17.00;99.90;;;;;;5456330;26;20475;-73
2024/04/13 05:05:11;;;;;;;7.57;6.97;;;17.00;99.90;;;;;;5455934;26;20553;-72
2024/04/13 05:07:40;;;;;;;8.40;7.60;;;17.00;99.90;;;;;;5456282;26;20783;-72
2024/04/13 05:10:08;;;;;;;8.47;7.67;;;17.00;99.90;;;;;;5455684;26;20538;-72
2024/04/13 05:12:36;;;;;;;14.57;12.30;;;17.00;99.90;;;;;;5456413;26;20537;-73
2024/04/13 05:15:03;;;;;;;16.43;14.73;;;17.00;99.90;;;;;;5455853;26;20879;-72
2024/04/13 05:17:32;;;;;;;23.83;19.13;;;17.00;99.90;;;;;;5455300;26;20475;-72
2024/04/13 05:20:01;;;;;;;9.20;8.40;;;17.00;99.90;;;;;;5456206;26;20909;-72
2024/04/13 05:22:29;;;;;;;10.33;9.33;;;17.00;99.90;;;;;;5455593;26;20527;-72
2024/04/13 05:24:55;;;;;;;7.87;7.20;;;17.00;99.90;;;;;;5456113;26;20475;-72
2024/04/13 05:27:24;;;;;;;10.80;8.77;;;17.00;99.90;;;;;;5455672;26;20475;-73
2024/04/13 05:29:53;;;;;;;9.03;7.07;;;17.00;99.90;;;;;;5455789;26;20523;-74
2024/04/13 05:32:22;;;;;;;10.93;8.03;;;17.00;99.90;;;;;;5455331;26;20476;-72
2024/04/13 05:34:48;;;;;;;84.20;59.70;;;17.00;99.90;;;;;;5455929;26;20590;-72
2024/04/13 05:37:19;;;;;;;18.30;16.63;;;17.00;99.90;;;;;;5454952;26;20494;-73
2024/04/13 05:39:45;;;;;;;10.70;9.77;;;17.10;99.90;;;;;;5455669;26;20554;-73
2024/04/13 05:42:14;;;;;;;14.00;10.33;;;17.10;99.90;;;;;;5455351;26;20487;-72
2024/04/13 05:44:40;;;;;;;8.50;7.63;;;17.10;99.90;;;;;;5455490;26;20623;-73
2024/04/13 05:47:09;;;;;;;8.03;7.23;;;17.10;99.90;;;;;;5455578;26;20471;-72
2024/04/13 05:49:35;;;;;;;10.23;8.07;;;17.20;99.90;;;;;;5455542;26;20851;-72
2024/04/13 05:52:03;;;;;;;28.60;21.63;;;17.20;99.90;;;;;;5455697;26;20475;-72
2024/04/13 05:54:32;;;;;;;13.33;12.03;;;17.20;99.90;;;;;;5455037;26;20550;-73
2024/04/13 05:57:01;;;;;;;13.60;12.40;;;17.30;99.90;;;;;;5455541;26;20593;-72
2024/04/13 05:59:27;;;;;;;10.13;8.97;;;17.30;99.90;;;;;;5454864;26;20538;-72
2024/04/13 06:01:55;;;;;;;12.33;8.00;;;17.40;99.90;;;;;;5454336;26;21122;-73
2024/04/13 06:04:21;;;;;;;8.90;7.80;;;17.40;99.90;;;;;;5455254;26;21023;-73
2024/04/13 06:06:50;;;;;;;13.37;11.50;;;17.50;99.90;;;;;;5455426;26;20471;-73
2024/04/13 06:09:16;;;;;;;10.37;8.80;;;17.50;99.90;;;;;;5454935;26;20524;-73
2024/04/13 06:11:48;;;;;;;18.23;13.93;;;17.60;99.90;;;;;;5455665;26;20467;-73
2024/04/13 06:14:16;;;;;;;12.27;8.57;;;17.60;99.90;;;;;;5453902;26;20781;-73
2024/04/13 06:16:44;;;;;;;10.10;9.10;;;17.60;99.90;;;;;;5454995;26;20875;-73
2024/04/13 06:19:15;;;;;;;12.23;10.37;;;17.70;99.90;;;;;;5455316;26;20479;-73
2024/04/13 06:21:41;;;;;;;19.33;15.80;;;17.70;99.90;;;;;;5455120;26;20599;-73
2024/04/13 06:24:09;;;;;;;10.27;9.20;;;17.70;99.90;;;;;;5455289;26;20948;-73
2024/04/13 06:26:35;;;;;;;24.07;19.10;;;17.70;99.90;;;;;;5454654;26;20486;-73
2024/04/13 06:29:06;;;;;;;16.30;13.97;;;17.80;99.90;;;;;;5455119;26;20479;-73
2024/04/13 06:31:32;;;;;;;33.03;27.23;;;17.80;99.90;;;;;;5454682;26;21068;-73
2024/04/13 06:34:02;;;;;;;10.93;9.87;;;17.80;99.90;;;;;;5455176;26;20479;-73
2024/04/13 06:36:28;;;;;;;8.83;7.90;;;17.90;99.90;;;;;;5454488;26;20471;-73
2024/04/13 06:38:56;;;;;;;8.80;7.80;;;17.90;99.90;;;;;;5455025;26;20791;-74
2024/04/13 06:41:22;;;;;;;11.47;9.03;;;18.00;99.90;;;;;;5454668;26;20551;-73
2024/04/13 06:43:53;;;;;;;7.80;7.10;;;18.10;99.90;;;;;;5454737;26;20570;-73
2024/04/13 06:46:22;;;;;;;14.17;12.67;;;18.10;99.90;;;;;;5454333;26;20532;-73
2024/04/13 06:48:50;;;;;;;13.50;12.10;;;18.20;99.90;;;;;;5454650;26;21016;-73
2024/04/13 06:51:16;;;;;;;9.10;8.00;;;18.20;99.90;;;;;;5454004;26;20456;-72
2024/04/13 06:53:45;;;;;;;12.90;10.80;;;18.30;99.90;;;;;;5453986;26;20867;-72
2024/04/13 06:56:13;;;;;;;9.43;8.47;;;18.30;99.90;;;;;;5454726;26;20615;-72
2024/04/13 06:58:43;;;;;;;10.60;9.43;;;18.40;99.90;;;;;;5453695;26;20569;-72
2024/04/13 07:01:09;;;;;;;10.10;9.00;;;18.50;99.90;;;;;;5454642;26;20532;-72
2024/04/13 07:03:43;;;;;;;8.83;7.47;;;18.50;99.90;;;;;;5454483;26;20460;-72
2024/04/13 07:06:09;;;;;;;9.50;8.60;;;18.60;99.90;;;;;;5454494;26;20527;-72
2024/04/13 07:08:37;;;;;;;12.03;10.67;;;18.60;99.90;;;;;;5453807;26;20475;-72
2024/04/13 07:11:03;;;;;;;20.90;16.20;;;18.70;99.90;;;;;;5454481;26;20614;-72
2024/04/13 07:13:33;;;;;;;14.17;12.53;;;18.70;99.90;;;;;;5453937;26;20535;-72
2024/04/13 07:16:00;;;;;;;11.73;9.20;;;18.80;99.90;;;;;;5454453;26;20527;-72
2024/04/13 07:18:29;;;;;;;16.50;13.50;;;18.80;99.90;;;;;;5453490;26;20475;-72
2024/04/13 07:20:57;;;;;;;10.73;9.10;;;18.90;99.90;;;;;;5454339;26;20785;-73
2024/04/13 07:23:26;;;;;;;8.50;7.70;;;18.90;99.90;;;;;;5453772;26;20559;-73
2024/04/13 07:25:58;;;;;;;6.97;6.27;;;19.00;99.90;;;;;;5454434;26;20639;-73
2024/04/13 07:28:27;;;;;;;16.83;14.20;;;19.20;99.90;;;;;;5453157;26;20598;-73
2024/04/13 07:30:53;;;;;;;10.63;7.90;;;19.20;99.90;;;;;;5454120;26;21000;-73
2024/04/13 07:33:22;;;;;;;8.20;7.40;;;19.30;99.90;;;;;;5454233;26;20556;-73
2024/04/13 07:35:48;;;;;;;9.60;7.30;;;19.30;99.90;;;;;;5453563;26;20620;-74
2024/04/13 07:38:26;;;;;;;9.20;7.40;;;19.40;99.90;;;;;;5453712;26;20486;-73
2024/04/13 07:40:52;;;;;;;10.40;9.40;;;19.50;99.90;;;;;;5453960;26;20621;-73
2024/04/13 07:43:22;;;;;;;11.67;9.63;;;19.60;99.90;;;;;;5453739;26;20578;-73
2024/04/13 07:45:49;;;;;;;8.53;7.63;;;19.70;99.90;;;;;;5453305;26;20814;-72
2024/04/13 07:48:18;;;;;;;15.33;13.67;;;19.80;99.90;;;;;;5453953;26;20556;-74
2024/04/13 07:50:44;;;;;;;8.57;7.80;;;19.80;99.90;;;;;;5453021;26;20618;-72
2024/04/13 07:53:12;;;;;;;17.30;13.07;;;19.90;99.90;;;;;;5453892;26;20482;-72
2024/04/13 07:55:41;;;;;;;9.13;8.33;;;19.90;99.90;;;;;;5452646;26;20539;-73
2024/04/13 07:58:10;;;;;;;9.50;8.60;;;19.90;99.90;;;;;;5453529;26;20471;-73
2024/04/13 08:00:36;;;;;;;13.40;10.97;;;20.00;99.90;;;;;;5453126;26;20471;-73
2024/04/13 08:03:04;;;;;;;11.03;9.33;;;20.10;99.90;;;;;;5453821;26;21119;-73
2024/04/13 08:05:30;;;;;;;12.27;10.87;;;20.20;99.90;;;;;;5452972;26;20611;-73
2024/04/13 08:07:59;;;;;;;11.40;10.27;;;20.20;99.90;;;;;;5453175;26;20479;-73
2024/04/13 08:10:25;;;;;;;9.63;8.70;;;20.20;99.90;;;;;;5453616;26;20983;-73
2024/04/13 08:12:56;;;;;;;12.63;11.30;;;20.30;99.90;;;;;;5453059;26;20471;-73
2024/04/13 08:15:22;;;;;;;18.50;16.63;;;20.30;99.90;;;;;;5453452;26;20554;-72
2024/04/13 08:17:54;;;;;;;14.63;11.97;;;20.30;99.90;;;;;;5452575;26;20467;-72
2024/04/13 08:20:20;;;;;;;11.47;9.80;;;20.30;99.90;;;;;;5453064;26;20619;-73
2024/04/13 08:22:48;;;;;;;11.63;9.60;;;20.40;99.90;;;;;;5452705;26;20960;-72
2024/04/13 08:25:15;;;;;;;9.80;8.90;;;20.40;99.90;;;;;;5455721;26;20546;-72
2024/04/13 08:27:43;;;;;;;13.40;10.90;;;20.50;99.90;;;;;;5455985;26;20960;-72
2024/04/13 08:30:12;;;;;;;17.83;13.97;;;20.60;99.90;;;;;;5456654;26;20546;-73
2024/04/13 08:32:44;;;;;;;14.10;12.60;;;20.60;99.90;;;;;;5456077;26;20479;-73
2024/04/13 08:35:10;;;;;;;10.23;9.23;;;20.70;99.90;;;;;;5456440;26;20959;-72
2024/04/13 08:37:39;;;;;;;7.70;6.97;;;20.70;99.90;;;;;;5455887;26;20535;-72
2024/04/13 08:40:10;;;;;;;6.83;6.03;;;20.70;99.90;;;;;;5456808;26;20581;-72
2024/04/13 08:42:43;;;;;;;7.23;6.63;;;20.70;99.90;;;;;;5456000;26;20531;-72
2024/04/13 08:45:12;;;;;;;17.87;14.90;;;20.70;99.90;;;;;;5456405;26;20471;-72
2024/04/13 08:47:44;;;;;;;10.60;6.20;;;20.80;99.90;;;;;;5455863;26;20940;-72
2024/04/13 08:50:10;;;;;;;9.40;6.67;;;20.80;99.90;;;;;;5456621;26;20598;-72
2024/04/13 08:52:40;;;;;;;8.73;5.73;;;20.80;99.90;;;;;;5455809;26;20494;-73
2024/04/13 08:55:06;;;;;;;14.63;13.13;;;20.70;99.90;;;;;;5456230;26;20554;-73
2024/04/13 08:57:39;;;;;;;5.20;4.70;;;20.80;99.90;;;;;;5456611;26;20471;-73
2024/04/13 09:00:12;;;;;;;8.13;5.80;;;20.80;99.90;;;;;;5455902;26;20667;-73
2024/04/13 09:02:47;;;;;;;8.77;7.80;;;20.80;99.90;;;;;;5456320;26;20471;-73
2024/04/13 09:05:15;;;;;;;10.00;9.07;;;20.90;99.90;;;;;;5455954;26;20800;-73
2024/04/13 09:07:44;;;;;;;7.40;6.67;;;20.90;99.90;;;;;;5456191;26;20540;-73
2024/04/13 09:10:12;;;;;;;5.60;5.10;;;20.90;99.90;;;;;;5455706;26;20597;-73
2024/04/13 09:12:40;;;;;;;7.33;6.63;;;21.10;99.90;;;;;;5455651;26;20467;-73
2024/04/13 09:15:07;;;;;;;7.93;6.63;;;21.10;99.90;;;;;;5455642;26;20697;-73
2024/04/13 09:17:36;;;;;;;8.13;6.17;;;21.20;99.90;;;;;;5455650;26;20527;-73
2024/04/13 09:20:07;;;;;;;11.13;10.07;;;21.20;99.90;;;;;;5455622;26;21017;-73
2024/04/13 09:22:37;;;;;;;7.50;6.80;;;21.30;99.90;;;;;;5455983;26;20606;-73
2024/04/13 09:25:03;;;;;;;12.03;9.67;;;21.40;99.90;;;;;;5455346;26;20895;-72
2024/04/13 09:27:34;;;;;;;7.07;4.97;;;21.50;99.90;;;;;;5454654;26;20520;-72
2024/04/13 09:30:07;;;;;;;7.20;6.50;;;21.50;99.90;;;;;;5455493;26;20535;-73
2024/04/13 09:32:37;;;;;;;8.73;7.93;;;21.60;99.90;;;;;;5455744;26;20640;-73
2024/04/13 09:35:12;;;;;;;7.93;6.73;;;21.70;99.90;;;;;;5455236;26;20558;-73
2024/04/13 09:37:41;;;;;;;8.00;5.50;;;21.80;99.90;;;;;;5455174;26;20773;-73
2024/04/13 09:40:10;;;;;;;8.50;7.70;;;21.80;99.90;;;;;;5455521;26;20909;-73
2024/04/13 09:42:39;;;;;;;8.13;7.33;;;21.80;99.90;;;;;;5455909;26;20479;-73
2024/04/13 09:45:05;;;;;;;5.20;4.70;;;21.80;99.90;;;;;;5452401;26;20486;-73
2024/04/13 09:47:34;;;;;;;11.77;10.57;;;21.80;99.90;;;;;;5455629;26;20882;-73
2024/04/13 09:50:00;;;;;;;8.67;7.63;;;21.80;99.90;;;;;;5455296;26;20619;-73
2024/04/13 09:52:32;;;;;;;7.77;6.70;;;21.90;99.90;;;;;;5455454;26;20556;-74
2024/04/13 09:54:59;;;;;;;7.93;7.13;;;21.90;99.90;;;;;;5455393;26;20603;-71
2024/04/13 09:57:28;;;;;;;8.40;7.53;;;21.90;99.90;;;;;;5455469;26;20953;-71
2024/04/13 09:59:54;;;;;;;8.27;7.47;;;21.90;99.90;;;;;;5454829;26;20619;-72
2024/04/13 10:02:23;;;;;;;6.30;5.70;;;21.90;99.90;;;;;;5455412;26;20479;-72
2024/04/13 10:04:49;;;;;;;6.50;5.90;;;21.90;99.90;;;;;;5455440;26;20620;-72
2024/04/13 10:07:18;;;;;;;7.50;6.80;;;21.90;99.90;;;;;;5454746;26;20486;-72
2024/04/13 10:09:52;;;;;;;11.63;9.90;;;21.90;99.90;;;;;;5455710;26;20615;-72
2024/04/13 10:12:25;;;;;;;5.67;5.10;;;21.90;99.90;;;;;;5439994;26;20544;-72
2024/04/13 10:14:52;;;;;;;11.80;10.73;;;21.90;99.90;;;;;;5455105;26;20554;-72
2024/04/13 10:17:22;;;;;;;9.70;8.00;;;22.00;99.90;;;;;;5454474;26;20828;-72
2024/04/13 10:19:48;;;;;;;12.27;10.40;;;22.00;99.90;;;;;;5455359;26;20573;-72
2024/04/13 10:22:18;;;;;;;5.87;5.43;;;22.00;99.90;;;;;;5454700;26;20479;-73
2024/04/13 10:24:47;;;;;;;6.60;5.37;;;22.00;99.90;;;;;;5455595;26;20479;-72
2024/04/13 10:27:16;;;;;;;5.27;4.70;;;22.00;99.90;;;;;;5454460;26;20539;-72
2024/04/13 10:29:46;;;;;;;4.70;4.30;;;22.00;99.90;;;;;;5454964;26;20936;-72
2024/04/13 10:32:19;;;;;;;6.93;6.23;;;22.00;99.90;;;;;;5454340;26;20944;-72
2024/04/13 10:34:46;;;;;;;8.73;5.20;;;22.00;99.90;;;;;;5455200;26;20602;-73
2024/04/13 10:37:28;;;;;;;9.43;6.60;;;22.10;99.90;;;;;;5454185;26;20471;-73
2024/04/13 10:39:58;;;;;;;5.37;4.87;;;22.10;99.90;;;;;;5454849;26;20482;-73
2024/04/13 10:42:40;;;;;;;5.27;4.63;;;22.10;99.90;;;;;;5439715;26;20542;-73
2024/04/13 10:45:10;;;;;;;4.43;4.00;;;22.20;99.90;;;;;;5454356;26;20554;-74
2024/04/13 10:47:40;;;;;;;6.00;4.57;;;22.30;99.90;;;;;;5454256;26;20479;-71
2024/04/13 10:50:09;;;;;;;4.00;3.60;;;22.30;99.90;;;;;;5454176;26;20476;-71
2024/04/13 10:52:38;;;;;;;5.77;5.17;;;22.40;99.90;;;;;;5454519;26;20965;-71
2024/04/13 10:55:07;;;;;;;6.87;4.43;;;22.40;99.90;;;;;;5454345;26;21035;-73
2024/04/13 10:57:35;;;;;;;6.60;4.70;;;22.50;99.90;;;;;;5454729;26;20940;-72
2024/04/13 11:00:01;;;;;;;4.70;4.30;;;22.50;99.90;;;;;;5454122;26;20479;-74
2024/04/13 11:02:30;;;;;;;7.83;5.97;;;22.50;99.90;;;;;;5454728;26;20475;-72
2024/04/13 11:04:56;;;;;;;8.47;7.57;;;22.50;99.90;;;;;;5454611;26;20849;-71
2024/04/13 11:07:25;;;;;;;5.23;4.03;;;22.60;99.90;;;;;;5454204;26;20579;-71
2024/04/13 11:09:51;;;;;;;4.83;4.50;;;22.60;99.90;;;;;;5454623;26;20551;-72
2024/04/13 11:12:22;;;;;;;6.70;5.27;;;22.60;99.90;;;;;;5453867;26;20593;-72
2024/04/13 11:14:49;;;;;;;4.57;4.13;;;22.60;99.90;;;;;;5454271;26;20573;-72
2024/04/13 11:17:18;;;;;;;3.80;3.50;;;22.60;99.90;;;;;;5454026;26;20546;-72
2024/04/13 11:19:44;;;;;;;5.97;5.10;;;22.60;99.90;;;;;;5454413;26;20548;-72
2024/04/13 11:22:13;;;;;;;9.70;8.80;;;22.60;99.90;;;;;;5453853;26;20598;-72
2024/04/13 11:24:40;;;;;;;4.33;3.93;;;22.60;99.90;;;;;;5454388;26;20555;-73
2024/04/13 11:27:08;;;;;;;6.33;5.27;;;22.60;99.90;;;;;;5453789;26;21037;-72
2024/04/13 11:29:37;;;;;;;3.70;3.30;;;22.60;99.90;;;;;;5454253;26;20560;-72
2024/04/13 11:32:06;;;;;;;6.67;4.10;;;22.60;99.90;;;;;;5454151;26;20586;-73
2024/04/13 11:34:32;;;;;;;5.33;3.40;;;22.70;99.90;;;;;;5453633;26;21016;-72
2024/04/13 11:37:05;;;;;;;4.87;3.30;;;22.70;99.90;;;;;;5454138;26;20594;-72
2024/04/13 11:39:33;;;;;;;6.23;5.63;;;22.70;99.90;;;;;;5453495;26;20915;-72
2024/04/13 11:42:05;;;;;;;6.43;5.83;;;22.80;99.90;;;;;;5453652;26;20498;-72
2024/04/13 11:44:31;;;;;;;4.00;3.37;;;22.80;99.90;;;;;;5453290;26;20475;-72
2024/04/13 11:47:03;;;;;;;8.10;4.80;;;22.80;99.90;;;;;;5453824;26;20562;-73
2024/04/13 11:49:29;;;;;;;5.90;3.40;;;22.90;99.90;;;;;;5453135;26;20548;-72
2024/04/13 11:52:00;;;;;;;5.17;3.30;;;22.80;99.90;;;;;;5453987;26;20830;-72
2024/04/13 11:54:27;;;;;;;3.20;2.67;;;22.80;99.80;;;;;;5453574;26;20949;-72
2024/04/13 11:56:57;;;;;;;5.60;4.67;;;22.80;99.60;;;;;;5453743;26;20481;-72
2024/04/13 11:59:23;;;;;;;8.07;4.00;;;22.80;99.50;;;;;;5454220;26;20479;-72
2024/04/13 12:01:53;;;;;;;7.00;3.73;;;22.80;99.60;;;;;;5457456;26;21003;-73
2024/04/13 12:04:22;;;;;;;6.13;4.10;;;22.80;99.30;;;;;;5456749;26;20471;-72
2024/04/13 12:06:52;;;;;;;3.57;3.27;;;22.90;99.20;;;;;;5456958;26;20479;-72
2024/04/13 12:09:19;;;;;;;5.43;3.27;;;22.90;99.00;;;;;;5456592;26;20615;-72
2024/04/13 12:11:47;;;;;;;4.17;3.07;;;22.90;99.00;;;;;;5457025;26;20523;-73
2024/04/13 12:14:14;;;;;;;6.07;3.53;;;22.90;98.80;;;;;;5456321;26;20535;-73
2024/04/13 12:16:44;;;;;;;4.07;3.00;;;22.90;98.90;;;;;;5456568;26;20488;-73
2024/04/13 12:19:10;;;;;;;5.10;3.53;;;22.90;98.40;;;;;;5457055;26;20527;-73
2024/04/13 12:21:41;;;;;;;5.20;4.70;;;22.90;97.60;;;;;;5456655;26;20474;-73
2024/04/13 12:24:08;;;;;;;4.90;3.60;;;22.90;96.80;;;;;;5456944;26;20554;-72
2024/04/13 12:26:37;;;;;;;4.10;2.83;;;23.00;96.60;;;;;;5456206;26;20528;-72
2024/04/13 12:29:06;;;;;;;8.10;5.00;;;23.00;96.50;;;;;;5456760;26;21016;-76
2024/04/13 12:31:34;;;;;;;4.80;3.80;;;23.00;96.50;;;;;;5456406;26;20569;-73
2024/04/13 12:34:00;;;;;;;8.70;3.50;;;23.00;96.80;;;;;;5456824;26;20554;-73
2024/04/13 12:36:29;;;;;;;4.83;4.43;;;23.00;96.40;;;;;;5456063;26;20582;-74
2024/04/13 12:38:57;;;;;;;4.23;2.57;;;23.00;96.20;;;;;;5457076;26;20485;-75
2024/04/13 12:41:26;;;;;;;3.50;3.20;;;23.00;95.60;;;;;;5456173;26;20475;-73
2024/04/13 12:43:52;;;;;;;2.80;2.30;;;23.10;95.20;;;;;;5456555;26;20909;-72
2024/04/13 12:46:20;;;;;;;3.90;3.23;;;23.10;95.20;;;;;;5455942;26;20482;-72
2024/04/13 12:48:46;;;;;;;4.37;3.30;;;23.00;94.80;;;;;;5456312;26;20561;-71